createdAt,value
2023-04-14T00:00:33.222Z,3.47
2023-04-14T00:03:00.116Z,3.50
2023-04-14T00:05:33.249Z,3.97
2023-04-14T00:07:59.802Z,3.75
2023-04-14T00:10:26.883Z,3.60
2023-04-14T00:12:55.246Z,4.32
2023-04-14T00:15:21.773Z,3.95
2023-04-14T00:17:48.169Z,4.38
2023-04-14T00:20:14.620Z,4.30
2023-04-14T00:22:41.039Z,4.40
2023-04-14T00:25:07.648Z,4.00
2023-04-14T00:27:34.000Z,4.25
2023-04-14T00:30:00.430Z,3.85
2023-04-14T00:32:26.773Z,4.65
2023-04-14T00:34:56.979Z,4.35
2023-04-14T00:37:24.110Z,4.80
2023-04-14T00:39:50.797Z,4.28
2023-04-14T00:42:17.211Z,4.65
2023-04-14T00:44:43.665Z,4.03
2023-04-14T00:47:10.438Z,3.97
2023-04-14T00:49:37.315Z,4.18
2023-04-14T00:52:03.988Z,4.40
2023-04-14T00:54:32.437Z,4.70
2023-04-14T00:56:58.927Z,4.65
2023-04-14T00:59:25.816Z,4.60
2023-04-14T01:01:52.287Z,4.60
2023-04-14T01:04:22.029Z,4.55
2023-04-14T01:06:48.680Z,4.32
2023-04-14T01:09:16.304Z,3.72
2023-04-14T01:12:08.385Z,3.90
2023-04-14T01:14:46.294Z,4.18
2023-04-14T01:17:12.626Z,4.82
2023-04-14T01:19:58.792Z,4.30
2023-04-14T01:22:30.609Z,4.85
2023-04-14T01:25:16.173Z,4.85
2023-04-14T01:27:42.626Z,4.85
2023-04-14T01:30:21.630Z,4.90
2023-04-14T01:32:49.859Z,5.00
2023-04-14T01:35:21.099Z,4.95
2023-04-14T01:37:49.419Z,4.85
2023-04-14T01:40:19.218Z,5.40
2023-04-14T01:42:51.969Z,4.28
2023-04-14T01:45:24.595Z,5.53
2023-04-14T01:47:51.800Z,5.10
2023-04-14T01:50:19.518Z,5.35
2023-04-14T01:52:51.389Z,5.10
2023-04-14T01:55:18.932Z,5.35
2023-04-14T01:57:54.401Z,5.45
2023-04-14T02:00:21.924Z,5.43
2023-04-14T02:02:52.288Z,5.32
2023-04-14T02:05:19.604Z,5.50
2023-04-14T02:07:46.931Z,5.30
2023-04-14T02:10:14.964Z,5.95
2023-04-14T02:12:42.069Z,5.78
2023-04-14T02:15:13.397Z,5.05
2023-04-14T02:17:40.484Z,5.18
2023-04-14T02:20:11.099Z,4.88
2023-04-14T02:22:37.522Z,5.35
2023-04-14T02:25:04.174Z,5.57
2023-04-14T02:27:32.031Z,5.18
2023-04-14T02:30:01.381Z,5.38
2023-04-14T02:32:31.768Z,5.00
2023-04-14T02:35:03.682Z,5.45
2023-04-14T02:37:36.464Z,5.85
2023-04-14T02:40:23.101Z,5.60
2023-04-14T02:42:51.923Z,5.82
2023-04-14T02:45:23.314Z,5.28
2023-04-14T02:47:53.051Z,5.00
2023-04-14T02:50:21.569Z,5.70
2023-04-14T02:52:51.417Z,5.10
2023-04-14T02:55:20.727Z,4.95
2023-04-14T02:57:48.209Z,4.63
2023-04-14T03:00:15.539Z,4.70
2023-04-14T03:02:43.203Z,4.75
2023-04-14T03:05:10.278Z,4.00
2023-04-14T03:07:37.512Z,4.72
2023-04-14T03:10:05.097Z,4.70
2023-04-14T03:12:32.335Z,4.70
2023-04-14T03:14:59.444Z,5.07
2023-04-14T03:17:26.294Z,4.80
2023-04-14T03:19:53.897Z,4.90
2023-04-14T03:22:20.817Z,5.07
2023-04-14T03:24:47.315Z,4.80
2023-04-14T03:27:14.705Z,4.82
2023-04-14T03:29:48.616Z,5.20
2023-04-14T03:32:16.429Z,5.57
2023-04-14T03:34:43.785Z,5.55
2023-04-14T03:37:11.267Z,5.90
2023-04-14T03:39:38.760Z,5.65
2023-04-14T03:42:08.014Z,6.10
2023-04-14T03:44:36.611Z,6.18
2023-04-14T03:47:08.183Z,6.43
2023-04-14T03:49:38.685Z,6.53
2023-04-14T03:52:06.648Z,6.95
2023-04-14T03:54:34.325Z,6.57
2023-04-14T03:57:04.660Z,6.13
2023-04-14T03:59:31.667Z,6.40
2023-04-14T04:01:58.548Z,6.82
2023-04-14T04:04:25.243Z,7.15
2023-04-14T04:06:51.754Z,6.90
2023-04-14T04:09:19.604Z,6.95
2023-04-14T04:11:46.917Z,7.07
2023-04-14T04:14:14.701Z,7.07
2023-04-14T04:16:42.591Z,7.78
2023-04-14T04:19:10.711Z,6.68
2023-04-14T04:21:42.099Z,7.78
2023-04-14T04:24:09.072Z,7.25
2023-04-14T04:26:36.635Z,6.78
2023-04-14T04:29:03.867Z,6.60
2023-04-14T04:31:32.824Z,6.57
2023-04-14T04:33:59.513Z,6.50
2023-04-14T04:36:28.781Z,6.30
2023-04-14T04:38:57.029Z,5.70
2023-04-14T04:41:24.030Z,5.60
2023-04-14T04:43:52.848Z,5.80
2023-04-14T04:46:38.144Z,6.00
2023-04-14T04:49:04.751Z,5.43
2023-04-14T04:51:31.318Z,5.00
2023-04-14T04:53:57.720Z,4.50
2023-04-14T04:56:24.125Z,4.97
2023-04-14T04:58:50.592Z,5.28
2023-04-14T05:01:18.906Z,4.82
2023-04-14T05:03:46.114Z,5.20
2023-04-14T05:06:13.219Z,5.05
2023-04-14T05:08:39.629Z,5.05
2023-04-14T05:11:08.382Z,4.53
2023-04-14T05:13:34.757Z,4.25
2023-04-14T05:16:04.779Z,4.13
2023-04-14T05:18:31.626Z,3.70
2023-04-14T05:21:03.969Z,3.63
2023-04-14T05:23:32.343Z,3.83
2023-04-14T05:26:10.035Z,3.90
2023-04-14T05:28:45.819Z,2.85
2023-04-14T05:31:12.374Z,3.20
2023-04-14T05:33:41.339Z,2.75
2023-04-14T05:36:10.339Z,2.63
2023-04-14T05:38:37.828Z,2.85
2023-04-14T05:41:04.363Z,2.40
2023-04-14T05:43:30.850Z,2.40
2023-04-14T05:46:00.396Z,2.25
2023-04-14T05:48:29.904Z,2.90
2023-04-14T05:50:56.835Z,3.15
2023-04-14T05:53:23.766Z,2.95
2023-04-14T05:55:53.492Z,2.55
2023-04-14T05:58:20.131Z,2.83
2023-04-14T06:00:46.799Z,3.75
2023-04-14T06:03:13.562Z,4.95
2023-04-14T06:05:40.564Z,2.65
2023-04-14T06:08:09.432Z,1.95
2023-04-14T06:10:36.266Z,1.88
2023-04-14T06:13:02.819Z,1.80
2023-04-14T06:15:31.875Z,2.35
2023-04-14T06:18:00.849Z,2.10
2023-04-14T06:20:27.400Z,1.92
2023-04-14T06:22:54.142Z,1.88
2023-04-14T06:25:23.225Z,1.80
2023-04-14T06:27:49.763Z,1.73
2023-04-14T06:30:17.065Z,1.90
2023-04-14T06:32:43.841Z,1.92
2023-04-14T06:35:19.167Z,1.95
2023-04-14T06:37:52.504Z,3.38
2023-04-14T06:40:19.116Z,3.83
2023-04-14T06:42:45.570Z,1.88
2023-04-14T06:45:12.054Z,1.20
2023-04-14T06:47:38.587Z,1.52
2023-04-14T06:50:05.554Z,1.50
2023-04-14T06:52:32.125Z,4.03
2023-04-14T06:54:58.589Z,2.05
2023-04-14T06:57:26.384Z,11.20
2023-04-14T06:59:53.020Z,7.85
2023-04-14T07:02:19.540Z,13.63
2023-04-14T07:04:46.158Z,2.53
2023-04-14T07:07:14.425Z,1.70
2023-04-14T07:09:44.113Z,7.40
2023-04-14T07:12:14.255Z,10.65
2023-04-14T07:14:41.415Z,9.98
2023-04-14T07:17:08.057Z,10.80
2023-04-14T07:19:34.716Z,9.77
2023-04-14T07:22:01.991Z,6.05
2023-04-14T07:24:28.518Z,4.10
2023-04-14T07:26:57.525Z,5.55
2023-04-14T07:29:24.030Z,8.43
2023-04-14T07:31:50.698Z,4.60
2023-04-14T07:34:17.297Z,6.43
2023-04-14T07:36:43.803Z,5.65
2023-04-14T07:39:10.379Z,3.20
2023-04-14T07:41:36.873Z,2.10
2023-04-14T07:44:05.756Z,5.10
2023-04-14T07:46:34.743Z,5.40
2023-04-14T07:49:01.278Z,3.65
2023-04-14T07:51:27.764Z,3.58
2023-04-14T07:53:56.089Z,2.00
2023-04-14T07:56:23.497Z,2.45
2023-04-14T07:58:52.723Z,2.75
2023-04-14T08:01:20.040Z,2.10
2023-04-14T08:03:46.941Z,2.50
2023-04-14T08:06:13.844Z,2.35
2023-04-14T08:08:41.317Z,2.50
2023-04-14T08:11:08.696Z,2.50
2023-04-14T08:13:36.112Z,2.72
2023-04-14T08:16:03.458Z,2.50
2023-04-14T08:18:32.599Z,2.88
2023-04-14T08:20:59.092Z,2.55
2023-04-14T08:23:25.697Z,2.72
2023-04-14T08:25:54.504Z,2.63
2023-04-14T08:28:21.198Z,3.33
2023-04-14T08:30:49.340Z,3.58
2023-04-14T08:33:15.998Z,2.75
2023-04-14T08:35:43.772Z,3.42
2023-04-14T08:38:10.908Z,3.30
2023-04-14T08:40:43.436Z,2.78
2023-04-14T08:43:12.460Z,3.22
2023-04-14T08:45:41.361Z,5.57
2023-04-14T08:48:08.089Z,10.25
2023-04-14T08:50:38.292Z,9.75
2023-04-14T08:53:08.613Z,4.50
2023-04-14T08:55:36.457Z,4.88
2023-04-14T08:58:06.443Z,3.92
2023-04-14T09:00:33.167Z,4.03
2023-04-14T09:02:59.874Z,4.15
2023-04-14T09:05:27.132Z,4.15
2023-04-14T09:07:54.228Z,4.57
2023-04-14T09:10:21.500Z,5.07
2023-04-14T09:12:50.491Z,13.13
2023-04-14T09:15:17.430Z,30.70
2023-04-14T09:17:44.177Z,6.15
2023-04-14T09:20:37.720Z,4.53
2023-04-14T09:23:00.536Z,5.55
2023-04-14T09:25:27.273Z,11.93
2023-04-14T09:27:54.208Z,6.47
2023-04-14T09:30:21.110Z,11.63
2023-04-14T09:32:51.202Z,10.43
2023-04-14T09:35:17.906Z,3.78
2023-04-14T09:37:45.274Z,3.40
2023-04-14T09:40:27.839Z,12.55
2023-04-14T09:42:54.733Z,10.77
2023-04-14T09:45:21.320Z,3.78
2023-04-14T09:47:49.126Z,3.72
2023-04-14T09:50:15.785Z,5.25
2023-04-14T09:52:45.268Z,3.88
2023-04-14T09:55:12.904Z,4.53
2023-04-14T09:57:43.348Z,4.93
2023-04-14T10:00:16.094Z,4.28
2023-04-14T10:02:49.543Z,3.90
2023-04-14T10:05:18.781Z,3.35
2023-04-14T10:07:45.316Z,3.15
2023-04-14T10:10:13.566Z,3.00
2023-04-14T10:12:46.538Z,2.95
2023-04-14T10:15:13.101Z,2.85
2023-04-14T10:17:39.670Z,2.83
2023-04-14T10:20:07.247Z,3.75
2023-04-14T10:22:33.800Z,2.70
2023-04-14T10:25:00.675Z,2.90
2023-04-14T10:27:31.337Z,2.67
2023-04-14T10:29:58.542Z,4.38
2023-04-14T10:32:26.305Z,3.53
2023-04-14T10:35:25.725Z,2.85
2023-04-14T10:37:52.828Z,2.97
2023-04-14T10:40:19.669Z,2.53
2023-04-14T10:42:56.099Z,2.97
2023-04-14T10:45:22.838Z,2.80
2023-04-14T10:47:49.968Z,2.78
2023-04-14T10:50:18.205Z,2.92
2023-04-14T10:52:55.859Z,2.72
2023-04-14T10:55:28.444Z,2.90
2023-04-14T10:58:06.207Z,3.10
2023-04-14T11:00:37.453Z,2.97
2023-04-14T11:03:13.316Z,3.05
2023-04-14T11:05:49.909Z,3.20
2023-04-14T11:08:17.907Z,3.08
2023-04-14T11:10:48.463Z,2.72
2023-04-14T11:13:17.560Z,4.47
2023-04-14T11:15:44.787Z,2.83
2023-04-14T11:18:15.380Z,2.67
2023-04-14T11:20:42.746Z,2.92
2023-04-14T11:23:12.691Z,2.80
2023-04-14T11:25:40.410Z,2.80
2023-04-14T11:28:09.499Z,3.00
2023-04-14T11:30:35.960Z,4.82
2023-04-14T11:33:02.713Z,2.67
2023-04-14T11:35:30.115Z,4.70
2023-04-14T11:37:57.448Z,6.78
2023-04-14T11:40:24.794Z,12.15
2023-04-14T11:42:52.481Z,7.80
2023-04-14T11:45:19.063Z,17.60
2023-04-14T11:48:01.601Z,34.45
2023-04-14T11:50:30.258Z,31.00
2023-04-14T11:52:59.864Z,19.80
2023-04-14T11:55:27.096Z,18.50
2023-04-14T11:57:54.167Z,4.10
2023-04-14T12:00:20.934Z,3.33
2023-04-14T12:02:47.631Z,3.13
2023-04-14T12:05:21.932Z,5.93
2023-04-14T12:07:58.165Z,6.03
2023-04-14T12:10:25.085Z,3.00
2023-04-14T12:12:58.645Z,2.28
2023-04-14T12:15:25.541Z,2.20
2023-04-14T12:17:54.317Z,2.33
2023-04-14T12:20:21.728Z,2.20
2023-04-14T12:22:49.328Z,2.13
2023-04-14T12:25:15.866Z,2.60
2023-04-14T12:27:42.390Z,2.30
2023-04-14T12:30:13.271Z,2.50
2023-04-14T12:32:44.711Z,2.00
2023-04-14T12:35:11.141Z,2.65
2023-04-14T12:37:38.812Z,2.38
2023-04-14T12:40:06.775Z,2.63
2023-04-14T12:42:43.954Z,2.40
2023-04-14T12:45:10.689Z,3.45
2023-04-14T12:47:42.637Z,4.30
2023-04-14T12:50:22.380Z,3.47
2023-04-14T12:52:51.610Z,3.88
2023-04-14T12:55:22.493Z,3.00
2023-04-14T12:57:51.378Z,3.05
2023-04-14T13:00:21.210Z,2.47
2023-04-14T13:02:47.829Z,2.50
2023-04-14T13:05:14.317Z,2.90
2023-04-14T13:07:40.734Z,3.47
2023-04-14T13:10:07.375Z,2.67
2023-04-14T13:12:33.781Z,2.88
2023-04-14T13:15:02.685Z,3.17
2023-04-14T13:17:29.166Z,3.00
2023-04-14T13:19:55.810Z,14.77
2023-04-14T13:22:22.213Z,5.65
2023-04-14T13:24:49.942Z,17.58
2023-04-14T13:27:16.816Z,7.88
2023-04-14T13:29:43.180Z,6.72
2023-04-14T13:32:12.724Z,3.30
2023-04-14T13:34:39.882Z,2.55
2023-04-14T13:37:06.429Z,2.20
2023-04-14T13:39:33.129Z,2.10
2023-04-14T13:41:59.520Z,2.60
2023-04-14T13:44:25.959Z,3.35
2023-04-14T13:46:52.471Z,2.67
2023-04-14T13:49:18.910Z,2.33
2023-04-14T13:51:45.370Z,2.10
2023-04-14T13:54:11.768Z,2.28
2023-04-14T13:56:38.145Z,2.50
2023-04-14T13:59:04.866Z,2.13
2023-04-14T14:01:31.756Z,3.50
2023-04-14T14:04:01.189Z,2.80
2023-04-14T14:06:28.760Z,2.50
2023-04-14T14:09:05.318Z,1.98
2023-04-14T14:11:32.349Z,2.40
2023-04-14T14:13:58.937Z,2.90
2023-04-14T14:16:36.173Z,3.20
2023-04-14T14:19:05.354Z,2.92
2023-04-14T14:21:31.956Z,3.08
2023-04-14T14:23:59.191Z,2.95
2023-04-14T14:26:26.105Z,2.75
2023-04-14T14:28:52.742Z,2.80
2023-04-14T14:31:19.148Z,3.35
2023-04-14T14:33:46.502Z,2.60
2023-04-14T14:36:12.927Z,3.85
2023-04-14T14:38:39.333Z,3.50
2023-04-14T14:41:06.021Z,2.80
2023-04-14T14:43:32.886Z,2.20
2023-04-14T14:46:01.327Z,2.35
2023-04-14T14:48:27.961Z,2.10
2023-04-14T14:50:54.437Z,2.80
2023-04-14T14:53:20.777Z,2.00
2023-04-14T14:55:49.692Z,2.00
2023-04-14T14:58:16.088Z,2.10
2023-04-14T15:00:42.543Z,2.13
2023-04-14T15:03:09.274Z,2.00
2023-04-14T15:05:38.441Z,2.00
2023-04-14T15:08:07.278Z,1.90
2023-04-14T15:10:33.667Z,2.25
2023-04-14T15:13:00.051Z,2.72
2023-04-14T15:15:26.666Z,1.17
2023-04-14T15:17:53.117Z,1.38
2023-04-14T15:20:19.594Z,1.85
2023-04-14T15:22:46.018Z,2.70
2023-04-14T15:25:12.468Z,3.25
2023-04-14T15:27:41.355Z,2.80
2023-04-14T15:30:08.165Z,11.05
2023-04-14T15:32:34.550Z,4.20
2023-04-14T15:35:01.032Z,5.43
2023-04-14T15:37:27.853Z,1.00
2023-04-14T15:39:54.793Z,1.58
2023-04-14T15:42:21.221Z,1.40
2023-04-14T15:44:48.782Z,1.30
2023-04-14T15:47:15.368Z,1.38
2023-04-14T15:49:41.765Z,3.30
2023-04-14T15:52:13.301Z,2.00
2023-04-14T15:54:39.722Z,2.35
2023-04-14T15:57:06.106Z,2.75
2023-04-14T15:59:32.777Z,1.95
2023-04-14T16:02:01.631Z,3.00
2023-04-14T16:04:30.647Z,4.00
2023-04-14T16:06:58.195Z,3.80
2023-04-14T16:09:25.034Z,4.38
2023-04-14T16:11:52.455Z,3.58
2023-04-14T16:14:18.882Z,4.18
2023-04-14T16:16:48.367Z,6.18
2023-04-14T16:19:16.172Z,3.90
2023-04-14T16:21:45.506Z,4.47
2023-04-14T16:24:12.062Z,4.40
2023-04-14T16:26:38.527Z,5.65
2023-04-14T16:29:04.983Z,6.60
2023-04-14T16:31:31.747Z,4.60
2023-04-14T16:33:58.721Z,4.50
2023-04-14T16:36:26.368Z,3.92
2023-04-14T16:38:52.808Z,4.00
2023-04-14T16:41:19.260Z,6.35
2023-04-14T16:43:45.878Z,7.07
2023-04-14T16:46:15.365Z,4.60
2023-04-14T16:48:44.582Z,4.65
2023-04-14T16:51:11.316Z,4.07
2023-04-14T16:53:40.794Z,2.83
2023-04-14T16:56:11.276Z,3.65
2023-04-14T16:58:38.847Z,3.60
2023-04-14T17:01:06.250Z,5.30
2023-04-14T17:03:33.216Z,3.92
2023-04-14T17:05:59.961Z,6.07
2023-04-14T17:08:26.596Z,11.10
2023-04-14T17:10:55.693Z,12.32
2023-04-14T17:13:22.208Z,3.70
2023-04-14T17:15:55.634Z,3.15
2023-04-14T17:18:27.234Z,3.90
2023-04-14T17:20:54.813Z,3.78
2023-04-14T17:23:21.968Z,3.63
2023-04-14T17:25:48.442Z,3.95
2023-04-14T17:28:15.579Z,3.60
2023-04-14T17:30:42.198Z,3.42
2023-04-14T17:33:08.907Z,3.72
2023-04-14T17:35:35.647Z,3.00
2023-04-14T17:38:03.618Z,2.50
2023-04-14T17:40:30.145Z,2.70
2023-04-14T17:42:57.117Z,2.50
2023-04-14T17:45:23.539Z,2.92
2023-04-14T17:47:51.008Z,3.22
2023-04-14T17:50:18.044Z,4.00
2023-04-14T17:52:45.660Z,3.53
2023-04-14T17:55:16.334Z,2.95
2023-04-14T17:57:43.340Z,3.28
2023-04-14T18:00:12.761Z,3.47
2023-04-14T18:02:39.526Z,4.20
2023-04-14T18:05:06.480Z,4.53
2023-04-14T18:07:33.059Z,4.70
2023-04-14T18:09:59.551Z,4.15
2023-04-14T18:12:26.066Z,3.60
2023-04-14T18:14:53.242Z,3.58
2023-04-14T18:17:22.282Z,4.00
2023-04-14T18:19:48.714Z,3.80
2023-04-14T18:22:15.123Z,3.30
2023-04-14T18:29:42.681Z,5.85
2023-04-14T18:32:09.326Z,6.38
2023-04-14T18:34:35.782Z,6.40
2023-04-14T18:37:03.959Z,5.00
2023-04-14T18:39:37.420Z,5.60
2023-04-14T18:42:04.318Z,4.93
2023-04-14T18:44:30.790Z,4.13
2023-04-14T18:46:57.242Z,4.45
2023-04-14T18:49:26.057Z,3.83
2023-04-14T18:51:55.763Z,3.63
2023-04-14T18:54:22.687Z,3.10
2023-04-14T18:56:49.231Z,3.00
2023-04-14T18:59:15.745Z,3.13
2023-04-14T19:01:42.163Z,2.58
2023-04-14T19:04:08.878Z,2.50
2023-04-14T19:06:35.408Z,2.95
2023-04-14T19:09:04.435Z,2.60
2023-04-14T19:11:35.763Z,2.30
2023-04-14T19:14:03.697Z,2.00
2023-04-14T19:16:30.373Z,2.20
2023-04-14T19:18:56.953Z,3.20
2023-04-14T19:21:23.317Z,2.33
2023-04-14T19:23:51.277Z,2.13
2023-04-14T19:26:19.336Z,1.80
2023-04-14T19:28:45.896Z,1.90
2023-04-14T19:31:12.902Z,1.70
2023-04-14T19:33:41.991Z,1.75
2023-04-14T19:36:12.410Z,1.60
2023-04-14T19:38:39.528Z,2.10
2023-04-14T19:41:06.047Z,2.15
2023-04-14T19:43:32.772Z,1.50
2023-04-14T19:46:03.502Z,1.70
2023-04-14T19:48:30.050Z,1.50
2023-04-14T19:50:56.506Z,1.90
2023-04-14T19:53:23.574Z,2.28
2023-04-14T19:55:51.138Z,2.20
2023-04-14T19:58:21.586Z,2.28
2023-04-14T20:00:52.542Z,2.38
2023-04-14T20:03:22.225Z,2.20
2023-04-14T20:05:52.570Z,2.13
2023-04-14T20:08:20.701Z,2.10
2023-04-14T20:10:52.080Z,2.13
2023-04-14T20:13:22.472Z,1.85
2023-04-14T20:15:49.347Z,2.35
2023-04-14T20:18:17.844Z,2.45
2023-04-14T20:20:44.773Z,2.28
2023-04-14T20:23:11.258Z,2.00
2023-04-14T20:25:37.686Z,2.20
2023-04-14T20:28:04.500Z,2.47
2023-04-14T20:30:33.911Z,2.42
2023-04-14T20:33:01.050Z,2.30
2023-04-14T20:35:28.037Z,2.30
2023-04-14T20:37:57.298Z,2.55
2023-04-14T20:40:23.962Z,2.63
2023-04-14T20:42:50.352Z,2.53
2023-04-14T20:45:16.857Z,2.65
2023-04-14T20:47:45.749Z,2.38
2023-04-14T20:50:14.896Z,2.78
2023-04-14T20:52:41.651Z,2.33
2023-04-14T20:55:10.682Z,2.50
2023-04-14T20:57:37.437Z,2.40
2023-04-14T21:00:05.386Z,2.55
2023-04-14T21:02:34.148Z,2.65
2023-04-14T21:05:00.657Z,2.10
2023-04-14T21:07:27.126Z,2.50
2023-04-14T21:09:53.663Z,2.35
2023-04-14T21:12:20.079Z,2.30
2023-04-14T21:15:28.977Z,2.60
2023-04-14T21:17:34.385Z,2.45
2023-04-14T21:20:01.550Z,2.15
2023-04-14T21:22:27.897Z,2.40
2023-04-14T21:24:54.446Z,2.40
2023-04-14T21:27:20.925Z,2.10
2023-04-14T21:29:47.306Z,2.47
2023-04-14T21:32:14.030Z,2.30
2023-04-14T21:34:40.746Z,2.60
2023-04-14T21:37:07.472Z,2.50
2023-04-14T21:39:33.829Z,2.50
2023-04-14T21:42:01.426Z,2.40
2023-04-14T21:44:30.019Z,2.78
2023-04-14T21:46:56.899Z,2.60
2023-04-14T21:49:23.453Z,2.58
2023-04-14T21:51:50.911Z,2.47
2023-04-14T21:54:17.385Z,2.45
2023-04-14T21:56:45.028Z,2.42
2023-04-14T21:59:11.889Z,2.70
2023-04-14T22:01:39.398Z,2.80
2023-04-14T22:04:06.390Z,2.60
2023-04-14T22:06:33.382Z,2.88
2023-04-14T22:09:00.114Z,2.70
2023-04-14T22:11:30.834Z,2.65
2023-04-14T22:13:58.227Z,2.60
2023-04-14T22:16:25.491Z,3.45
2023-04-14T22:18:52.139Z,3.17
2023-04-14T22:21:18.836Z,3.10
2023-04-14T22:23:45.248Z,2.92
2023-04-14T22:26:12.591Z,3.58
2023-04-14T22:28:39.321Z,3.17
2023-04-14T22:31:05.790Z,3.42
2023-04-14T22:33:34.741Z,3.22
2023-04-14T22:36:03.715Z,3.25
2023-04-14T22:38:31.017Z,3.65
2023-04-14T22:40:57.566Z,3.15
2023-04-14T22:43:23.949Z,3.55
2023-04-14T22:45:50.982Z,3.38
2023-04-14T22:48:17.558Z,3.45
2023-04-14T22:50:44.215Z,3.70
2023-04-14T22:53:10.877Z,3.55
2023-04-14T22:55:37.275Z,3.85
2023-04-14T22:58:04.136Z,3.95
2023-04-14T23:00:31.187Z,4.20
2023-04-14T23:02:59.379Z,3.75
2023-04-14T23:05:26.177Z,4.20
2023-04-14T23:07:54.877Z,4.40
2023-04-14T23:10:24.096Z,4.30
2023-04-14T23:12:51.099Z,4.20
2023-04-14T23:15:18.774Z,4.13
2023-04-14T23:17:45.237Z,4.63
2023-04-14T23:20:12.018Z,4.65
2023-04-14T23:22:38.592Z,4.90
2023-04-14T23:25:05.321Z,4.97
2023-04-14T23:27:31.908Z,5.40
2023-04-14T23:29:58.436Z,4.60
2023-04-14T23:32:24.940Z,4.78
2023-04-14T23:34:51.393Z,4.78
2023-04-14T23:37:18.377Z,5.40
2023-04-14T23:39:44.847Z,4.80
2023-04-14T23:42:11.314Z,4.72
2023-04-14T23:44:37.773Z,5.20
2023-04-14T23:47:06.329Z,5.68
2023-04-14T23:49:35.532Z,5.35
2023-04-14T23:52:05.207Z,5.70
2023-04-14T23:54:31.847Z,5.80
2023-04-14T23:56:59.425Z,5.70
2023-04-14T23:59:26.350Z,5.47
